ANA1217 RJFF-ROAH
Flight info
| Callsign | ANA1217 |
|---|---|
| Flight time | 1h 16m |
| Altitude | 38000 |
| Route | YAMGA DCT VEMRA Y506 HKC Y45 ONC Y525 IHEYA |
| Aircraft | B77W/M-SDE1E2E3FGHIJ2J3J4J5M1RWXY/LB1D1 |
Departure
| Time | 2026-05-07 12:22 |
|---|---|
| Airport | Fukuoka Airport (RJFF) |
Arrival
| Time | 2026-05-07 13:38 |
|---|---|
| Airport | Naha International Airport (ROAH) |
| Time | Latitude | Longitude | Altitude | Speed | Heading |
|---|---|---|---|---|---|
| 2026-05-07 11:38 | 33.59627 | 130.44782 | 30 ft | 0 kts | 62° |
| 2026-05-07 12:09 | 33.59626 | 130.44781 | 30 ft | 2 kts | 62° |
| 2026-05-07 12:09 | 33.59622 | 130.44757 | 29 ft | 4 kts | 108° |
| 2026-05-07 12:10 | 33.59621 | 130.44739 | 27 ft | 4 kts | 65° |
| 2026-05-07 12:10 | 33.59617 | 130.44711 | 26 ft | 4 kts | 111° |
| 2026-05-07 12:10 | 33.59631 | 130.44686 | 28 ft | 4 kts | 142° |
| 2026-05-07 12:10 | 33.59649 | 130.44672 | 29 ft | 0 kts | 150° |
| 2026-05-07 12:14 | 33.59646 | 130.44674 | 29 ft | 2 kts | 150° |
| 2026-05-07 12:14 | 33.59618 | 130.44694 | 27 ft | 7 kts | 149° |
| 2026-05-07 12:15 | 33.59558 | 130.44735 | 31 ft | 13 kts | 150° |
| 2026-05-07 12:15 | 33.59475 | 130.44790 | 30 ft | 14 kts | 151° |
| 2026-05-07 12:15 | 33.59385 | 130.44844 | 29 ft | 15 kts | 164° |
| 2026-05-07 12:15 | 33.59281 | 130.44851 | 30 ft | 15 kts | 179° |
| 2026-05-07 12:16 | 33.59186 | 130.44891 | 30 ft | 15 kts | 151° |
| 2026-05-07 12:16 | 33.59096 | 130.44952 | 30 ft | 15 kts | 150° |
| 2026-05-07 12:16 | 33.59007 | 130.45013 | 34 ft | 15 kts | 150° |
| 2026-05-07 12:16 | 33.58917 | 130.45074 | 36 ft | 15 kts | 150° |
| 2026-05-07 12:17 | 33.58827 | 130.45135 | 37 ft | 15 kts | 150° |
| 2026-05-07 12:17 | 33.58738 | 130.45197 | 40 ft | 15 kts | 150° |
| 2026-05-07 12:17 | 33.58648 | 130.45258 | 40 ft | 15 kts | 150° |
| 2026-05-07 12:17 | 33.58557 | 130.45320 | 39 ft | 15 kts | 150° |
| 2026-05-07 12:18 | 33.58465 | 130.45383 | 40 ft | 15 kts | 150° |
| 2026-05-07 12:18 | 33.58372 | 130.45447 | 39 ft | 17 kts | 150° |
| 2026-05-07 12:18 | 33.58253 | 130.45528 | 39 ft | 23 kts | 150° |
| 2026-05-07 12:18 | 33.58107 | 130.45628 | 42 ft | 25 kts | 150° |
| 2026-05-07 12:19 | 33.57957 | 130.45731 | 47 ft | 23 kts | 150° |
| 2026-05-07 12:19 | 33.57858 | 130.45798 | 49 ft | 9 kts | 150° |
| 2026-05-07 12:19 | 33.57815 | 130.45828 | 49 ft | 0 kts | 150° |
| 2026-05-07 12:20 | 33.57813 | 130.45829 | 49 ft | 1 kts | 150° |
| 2026-05-07 12:20 | 33.57762 | 130.45858 | 50 ft | 10 kts | 164° |
| 2026-05-07 12:20 | 33.57698 | 130.45831 | 49 ft | 10 kts | 226° |
| 2026-05-07 12:20 | 33.57663 | 130.45749 | 48 ft | 12 kts | 258° |
| 2026-05-07 12:21 | 33.57706 | 130.45672 | 46 ft | 12 kts | 329° |
| 2026-05-07 12:21 | 33.57839 | 130.45582 | 48 ft | 49 kts | 330° |
| 2026-05-07 12:21 | 33.58368 | 130.45219 | 42 ft | 125 kts | 329° |
| 2026-05-07 12:21 | 33.59299 | 130.44591 | 33 ft | 180 kts | 331° |
| 2026-05-07 12:22 | 33.60402 | 130.43847 | 717 ft | 177 kts | 330° |
| 2026-05-07 12:22 | 33.61497 | 130.43086 | 1482 ft | 184 kts | 329° |
| 2026-05-07 12:22 | 33.62646 | 130.42299 | 2114 ft | 200 kts | 328° |
| 2026-05-07 12:22 | 33.63953 | 130.41417 | 2393 ft | 230 kts | 332° |
| 2026-05-07 12:23 | 33.65606 | 130.41103 | 2750 ft | 257 kts | 10° |
| 2026-05-07 12:23 | 33.67189 | 130.42117 | 3402 ft | 271 kts | 48° |
| 2026-05-07 12:23 | 33.68235 | 130.44020 | 4082 ft | 278 kts | 62° |
| 2026-05-07 12:23 | 33.69100 | 130.46122 | 4871 ft | 282 kts | 75° |
| 2026-05-07 12:24 | 33.69150 | 130.48455 | 5662 ft | 284 kts | 109° |
| 2026-05-07 12:24 | 33.68166 | 130.50473 | 6555 ft | 282 kts | 137° |
| 2026-05-07 12:24 | 33.66561 | 130.51790 | 7349 ft | 279 kts | 161° |
| 2026-05-07 12:24 | 33.64721 | 130.52618 | 8091 ft | 286 kts | 165° |
| 2026-05-07 12:25 | 33.62830 | 130.53396 | 9019 ft | 289 kts | 166° |
| 2026-05-07 12:25 | 33.60913 | 130.54170 | 9909 ft | 292 kts | 166° |
| 2026-05-07 12:25 | 33.58974 | 130.54953 | 10650 ft | 301 kts | 166° |
| 2026-05-07 12:25 | 33.56918 | 130.55781 | 10888 ft | 331 kts | 166° |
| 2026-05-07 12:26 | 33.54635 | 130.56707 | 11111 ft | 361 kts | 166° |
| 2026-05-07 12:26 | 33.52200 | 130.57709 | 11694 ft | 377 kts | 165° |
| 2026-05-07 12:26 | 33.49691 | 130.58752 | 12585 ft | 385 kts | 165° |
| 2026-05-07 12:26 | 33.47147 | 130.59816 | 13575 ft | 391 kts | 166° |
| 2026-05-07 12:27 | 33.44556 | 130.60901 | 14487 ft | 395 kts | 166° |
| 2026-05-07 12:27 | 33.41952 | 130.61990 | 15423 ft | 399 kts | 166° |
| 2026-05-07 12:27 | 33.39316 | 130.63092 | 16360 ft | 403 kts | 166° |
| 2026-05-07 12:27 | 33.36658 | 130.64200 | 17284 ft | 407 kts | 166° |
| 2026-05-07 12:28 | 33.33971 | 130.65318 | 17922 ft | 412 kts | 167° |
| 2026-05-07 12:28 | 33.31234 | 130.66457 | 17932 ft | 416 kts | 166° |
| 2026-05-07 12:28 | 33.28545 | 130.67576 | 17934 ft | 413 kts | 166° |
| 2026-05-07 12:28 | 33.25829 | 130.68707 | 17945 ft | 413 kts | 166° |
| 2026-05-07 12:29 | 33.23116 | 130.69834 | 17950 ft | 414 kts | 166° |
| 2026-05-07 12:29 | 33.20384 | 130.70968 | 17944 ft | 416 kts | 166° |
| 2026-05-07 12:29 | 33.17651 | 130.72099 | 17930 ft | 416 kts | 166° |
| 2026-05-07 12:29 | 33.14914 | 130.73234 | 17943 ft | 416 kts | 166° |
| 2026-05-07 12:30 | 33.12161 | 130.74241 | 17938 ft | 411 kts | 173° |
| 2026-05-07 12:30 | 33.09358 | 130.74740 | 17953 ft | 405 kts | 181° |
| 2026-05-07 12:30 | 33.06550 | 130.74821 | 17948 ft | 400 kts | 188° |
| 2026-05-07 12:30 | 33.03802 | 130.74493 | 18001 ft | 395 kts | 191° |
| 2026-05-07 12:31 | 33.01062 | 130.74124 | 18034 ft | 396 kts | 191° |
| 2026-05-07 12:31 | 32.98319 | 130.73775 | 18381 ft | 398 kts | 191° |
| 2026-05-07 12:31 | 32.95552 | 130.73435 | 18701 ft | 401 kts | 191° |
| 2026-05-07 12:31 | 32.92800 | 130.73102 | 19029 ft | 404 kts | 190° |
| 2026-05-07 12:32 | 32.89984 | 130.72763 | 19742 ft | 408 kts | 191° |
| 2026-05-07 12:32 | 32.87144 | 130.72416 | 20599 ft | 410 kts | 191° |
| 2026-05-07 12:32 | 32.84292 | 130.72066 | 21425 ft | 413 kts | 191° |
| 2026-05-07 12:32 | 32.81416 | 130.71710 | 22169 ft | 418 kts | 191° |
| 2026-05-07 12:33 | 32.75534 | 130.70984 | 23529 ft | 428 kts | 191° |
| 2026-05-07 12:33 | 32.72554 | 130.70618 | 24095 ft | 433 kts | 191° |
| 2026-05-07 12:33 | 32.69532 | 130.70248 | 24630 ft | 438 kts | 191° |
| 2026-05-07 12:34 | 32.66479 | 130.69873 | 25161 ft | 443 kts | 191° |
| 2026-05-07 12:34 | 32.63399 | 130.69498 | 25713 ft | 447 kts | 191° |
| 2026-05-07 12:34 | 32.60286 | 130.69118 | 26267 ft | 452 kts | 191° |
| 2026-05-07 12:34 | 32.57181 | 130.68739 | 26787 ft | 456 kts | 191° |
| 2026-05-07 12:35 | 32.54007 | 130.68352 | 27303 ft | 461 kts | 191° |
| 2026-05-07 12:35 | 32.50803 | 130.67961 | 27793 ft | 465 kts | 191° |
| 2026-05-07 12:35 | 32.47564 | 130.67565 | 28271 ft | 470 kts | 191° |
| 2026-05-07 12:35 | 32.44296 | 130.67167 | 28749 ft | 474 kts | 191° |
| 2026-05-07 12:36 | 32.41003 | 130.66768 | 29223 ft | 477 kts | 191° |
| 2026-05-07 12:36 | 32.37681 | 130.66365 | 29652 ft | 482 kts | 191° |
| 2026-05-07 12:36 | 32.34330 | 130.65959 | 30060 ft | 485 kts | 191° |
| 2026-05-07 12:36 | 32.30975 | 130.65552 | 30584 ft | 484 kts | 191° |
| 2026-05-07 12:37 | 32.27632 | 130.65148 | 31202 ft | 481 kts | 191° |
| 2026-05-07 12:37 | 32.24304 | 130.64745 | 31751 ft | 480 kts | 191° |
| 2026-05-07 12:37 | 32.20976 | 130.64346 | 32005 ft | 479 kts | 191° |
| 2026-05-07 12:37 | 32.17700 | 130.63954 | 32032 ft | 477 kts | 191° |
| 2026-05-07 12:38 | 32.14402 | 130.63562 | 32443 ft | 474 kts | 191° |
| 2026-05-07 12:38 | 32.11113 | 130.63169 | 32962 ft | 474 kts | 191° |
| 2026-05-07 12:38 | 32.07833 | 130.62776 | 33466 ft | 474 kts | 191° |
| 2026-05-07 12:38 | 32.04620 | 130.62391 | 33955 ft | 473 kts | 191° |
| 2026-05-07 12:39 | 32.01346 | 130.62000 | 34414 ft | 472 kts | 191° |
| 2026-05-07 12:39 | 31.98079 | 130.61611 | 34867 ft | 470 kts | 191° |
| 2026-05-07 12:39 | 31.94867 | 130.61232 | 35318 ft | 469 kts | 191° |
| 2026-05-07 12:39 | 31.91615 | 130.60853 | 35796 ft | 467 kts | 191° |
| 2026-05-07 12:40 | 31.88378 | 130.60477 | 36269 ft | 465 kts | 192° |
| 2026-05-07 12:40 | 31.85172 | 130.60105 | 36755 ft | 462 kts | 192° |
| 2026-05-07 12:40 | 31.81972 | 130.59732 | 37246 ft | 459 kts | 192° |
| 2026-05-07 12:40 | 31.78846 | 130.59367 | 37743 ft | 456 kts | 192° |
| 2026-05-07 12:41 | 31.75685 | 130.58998 | 38031 ft | 459 kts | 192° |
| 2026-05-07 12:41 | 31.72493 | 130.58589 | 37984 ft | 463 kts | 194° |
| 2026-05-07 12:41 | 31.66239 | 130.56814 | 38003 ft | 462 kts | 205° |
| 2026-05-07 12:42 | 31.60250 | 130.54026 | 38002 ft | 464 kts | 207° |
| 2026-05-07 12:42 | 31.54250 | 130.51304 | 37992 ft | 466 kts | 206° |
| 2026-05-07 12:43 | 31.48159 | 130.48647 | 37990 ft | 467 kts | 206° |
| 2026-05-07 12:43 | 31.42079 | 130.45990 | 37993 ft | 465 kts | 206° |
| 2026-05-07 12:44 | 31.36019 | 130.43327 | 37993 ft | 464 kts | 206° |
| 2026-05-07 12:44 | 31.30010 | 130.40689 | 37991 ft | 463 kts | 206° |
| 2026-05-07 12:45 | 31.24001 | 130.38000 | 37990 ft | 461 kts | 207° |
| 2026-05-07 12:45 | 31.18349 | 130.35316 | 37992 ft | 460 kts | 207° |
| 2026-05-07 12:46 | 31.12401 | 130.32498 | 37993 ft | 460 kts | 207° |
| 2026-05-07 12:46 | 31.06482 | 130.29724 | 37999 ft | 461 kts | 207° |
| 2026-05-07 12:47 | 31.00514 | 130.26944 | 37994 ft | 462 kts | 207° |
| 2026-05-07 12:47 | 30.94533 | 130.24164 | 37997 ft | 462 kts | 207° |
| 2026-05-07 12:48 | 30.88607 | 130.21411 | 37995 ft | 463 kts | 207° |
| 2026-05-07 12:48 | 30.82621 | 130.18632 | 37993 ft | 463 kts | 207° |
| 2026-05-07 12:49 | 30.76628 | 130.15854 | 37997 ft | 464 kts | 207° |
| 2026-05-07 12:49 | 30.70635 | 130.13079 | 38000 ft | 464 kts | 207° |
| 2026-05-07 12:50 | 30.64631 | 130.10302 | 38002 ft | 464 kts | 207° |
| 2026-05-07 12:50 | 30.58632 | 130.07532 | 38001 ft | 464 kts | 207° |
| 2026-05-07 12:51 | 30.52662 | 130.04805 | 37999 ft | 464 kts | 206° |
| 2026-05-07 12:51 | 30.46633 | 130.02081 | 37999 ft | 464 kts | 206° |
| 2026-05-07 12:52 | 30.40604 | 129.99353 | 38005 ft | 464 kts | 207° |
| 2026-05-07 12:52 | 30.34619 | 129.96646 | 38003 ft | 463 kts | 207° |
| 2026-05-07 12:53 | 30.28562 | 129.94053 | 38002 ft | 464 kts | 205° |
| 2026-05-07 12:53 | 30.22462 | 129.91551 | 38006 ft | 464 kts | 205° |
| 2026-05-07 12:54 | 30.16378 | 129.89038 | 38005 ft | 464 kts | 205° |
| 2026-05-07 12:54 | 30.10331 | 129.86525 | 38005 ft | 464 kts | 205° |
| 2026-05-07 12:55 | 30.04254 | 129.84000 | 38006 ft | 464 kts | 206° |
| 2026-05-07 12:55 | 29.99171 | 129.81882 | 38009 ft | 463 kts | 206° |
| 2026-05-07 12:56 | 29.93563 | 129.79337 | 38005 ft | 462 kts | 208° |
| 2026-05-07 12:56 | 29.87611 | 129.76545 | 38005 ft | 462 kts | 208° |
| 2026-05-07 12:57 | 29.81681 | 129.73790 | 38004 ft | 462 kts | 208° |
| 2026-05-07 12:57 | 29.75702 | 129.71040 | 38009 ft | 463 kts | 208° |
| 2026-05-07 12:58 | 29.69720 | 129.68299 | 38005 ft | 463 kts | 208° |
| 2026-05-07 12:58 | 29.63734 | 129.65559 | 38002 ft | 463 kts | 208° |
| 2026-05-07 12:59 | 29.57750 | 129.62822 | 37999 ft | 463 kts | 209° |
| 2026-05-07 12:59 | 29.51760 | 129.60086 | 38006 ft | 463 kts | 209° |
| 2026-05-07 13:00 | 29.45808 | 129.57370 | 38011 ft | 463 kts | 209° |
| 2026-05-07 13:00 | 29.39819 | 129.54641 | 38013 ft | 463 kts | 209° |
| 2026-05-07 13:01 | 29.33813 | 129.51907 | 38019 ft | 464 kts | 209° |
| 2026-05-07 13:01 | 29.27727 | 129.49343 | 38019 ft | 467 kts | 207° |
| 2026-05-07 13:02 | 29.21616 | 129.46909 | 37998 ft | 468 kts | 207° |
| 2026-05-07 13:02 | 29.15463 | 129.44431 | 38011 ft | 468 kts | 207° |
| 2026-05-07 13:03 | 29.09318 | 129.41933 | 38011 ft | 468 kts | 208° |
| 2026-05-07 13:03 | 29.03163 | 129.39430 | 38014 ft | 469 kts | 208° |
| 2026-05-07 13:04 | 28.97050 | 129.36932 | 38016 ft | 469 kts | 208° |
| 2026-05-07 13:04 | 28.90957 | 129.34268 | 38016 ft | 468 kts | 210° |
| 2026-05-07 13:05 | 28.84882 | 129.31567 | 38016 ft | 469 kts | 210° |
| 2026-05-07 13:05 | 28.78789 | 129.28883 | 38016 ft | 469 kts | 209° |
| 2026-05-07 13:06 | 28.72734 | 129.26234 | 38016 ft | 469 kts | 209° |
| 2026-05-07 13:06 | 28.66630 | 129.23569 | 38016 ft | 469 kts | 209° |
| 2026-05-07 13:07 | 28.60535 | 129.20910 | 38013 ft | 469 kts | 210° |
| 2026-05-07 13:07 | 28.54437 | 129.18252 | 38018 ft | 469 kts | 210° |
| 2026-05-07 13:08 | 28.48375 | 129.15612 | 38021 ft | 469 kts | 210° |
| 2026-05-07 13:08 | 28.42277 | 129.12960 | 38017 ft | 469 kts | 210° |
| 2026-05-07 13:09 | 28.36183 | 129.10305 | 38019 ft | 469 kts | 210° |
| 2026-05-07 13:09 | 28.30068 | 129.07642 | 38019 ft | 470 kts | 210° |
| 2026-05-07 13:10 | 28.23957 | 129.04986 | 38019 ft | 470 kts | 210° |
| 2026-05-07 13:10 | 28.17839 | 129.02329 | 38019 ft | 471 kts | 210° |
| 2026-05-07 13:11 | 28.11841 | 128.99683 | 38003 ft | 465 kts | 211° |
| 2026-05-07 13:11 | 28.08854 | 128.98318 | 37790 ft | 464 kts | 211° |
| 2026-05-07 13:11 | 28.05844 | 128.96929 | 37287 ft | 468 kts | 210° |
| 2026-05-07 13:12 | 28.02831 | 128.95545 | 36751 ft | 465 kts | 209° |
| 2026-05-07 13:12 | 27.99848 | 128.94186 | 36311 ft | 459 kts | 209° |
| 2026-05-07 13:12 | 27.96889 | 128.92841 | 35865 ft | 454 kts | 208° |
| 2026-05-07 13:12 | 27.93971 | 128.91516 | 35407 ft | 450 kts | 208° |
| 2026-05-07 13:13 | 27.91078 | 128.90203 | 34953 ft | 446 kts | 207° |
| 2026-05-07 13:13 | 27.88224 | 128.88927 | 34508 ft | 443 kts | 206° |
| 2026-05-07 13:13 | 27.85340 | 128.87689 | 34032 ft | 441 kts | 205° |
| 2026-05-07 13:13 | 27.82472 | 128.86481 | 33546 ft | 437 kts | 205° |
| 2026-05-07 13:14 | 27.79634 | 128.85290 | 33067 ft | 433 kts | 205° |
| 2026-05-07 13:14 | 27.76818 | 128.84105 | 32617 ft | 429 kts | 205° |
| 2026-05-07 13:14 | 27.74062 | 128.82940 | 32175 ft | 425 kts | 205° |
| 2026-05-07 13:14 | 27.71295 | 128.81767 | 31735 ft | 421 kts | 206° |
| 2026-05-07 13:15 | 27.68561 | 128.80606 | 31301 ft | 418 kts | 206° |
| 2026-05-07 13:15 | 27.65845 | 128.79453 | 30879 ft | 414 kts | 206° |
| 2026-05-07 13:15 | 27.63150 | 128.78309 | 30458 ft | 411 kts | 206° |
| 2026-05-07 13:15 | 27.60478 | 128.77175 | 29988 ft | 409 kts | 206° |
| 2026-05-07 13:16 | 27.57822 | 128.76048 | 29504 ft | 406 kts | 206° |
| 2026-05-07 13:16 | 27.55221 | 128.74945 | 29055 ft | 403 kts | 206° |
| 2026-05-07 13:16 | 27.52607 | 128.73838 | 28613 ft | 399 kts | 206° |
| 2026-05-07 13:16 | 27.50021 | 128.72744 | 28187 ft | 396 kts | 206° |
| 2026-05-07 13:17 | 27.47449 | 128.71657 | 27762 ft | 392 kts | 206° |
| 2026-05-07 13:17 | 27.45535 | 128.70674 | 27414 ft | 382 kts | 216° |
| 2026-05-07 13:17 | 27.43435 | 128.68907 | 27020 ft | 373 kts | 226° |
| 2026-05-07 13:17 | 27.41667 | 128.66796 | 26580 ft | 368 kts | 235° |
| 2026-05-07 13:18 | 27.40296 | 128.64404 | 26147 ft | 362 kts | 241° |
| 2026-05-07 13:18 | 27.39025 | 128.61960 | 25706 ft | 360 kts | 241° |
| 2026-05-07 13:18 | 27.37772 | 128.59520 | 25292 ft | 359 kts | 241° |
| 2026-05-07 13:18 | 27.36539 | 128.57123 | 24852 ft | 359 kts | 241° |
| 2026-05-07 13:19 | 27.35267 | 128.54667 | 24420 ft | 358 kts | 240° |
| 2026-05-07 13:19 | 27.34026 | 128.52285 | 24000 ft | 358 kts | 240° |
| 2026-05-07 13:19 | 27.32760 | 128.49869 | 23551 ft | 358 kts | 240° |
| 2026-05-07 13:19 | 27.31493 | 128.47458 | 23052 ft | 357 kts | 240° |
| 2026-05-07 13:20 | 27.30231 | 128.45060 | 22607 ft | 355 kts | 240° |
| 2026-05-07 13:20 | 27.28974 | 128.42677 | 22162 ft | 353 kts | 240° |
| 2026-05-07 13:20 | 27.27723 | 128.40305 | 21733 ft | 351 kts | 240° |
| 2026-05-07 13:20 | 27.26476 | 128.37945 | 21309 ft | 350 kts | 240° |
| 2026-05-07 13:21 | 27.25236 | 128.35598 | 20891 ft | 348 kts | 240° |
| 2026-05-07 13:21 | 27.23999 | 128.33258 | 20465 ft | 347 kts | 240° |
| 2026-05-07 13:21 | 27.22765 | 128.30923 | 20047 ft | 346 kts | 240° |
| 2026-05-07 13:21 | 27.21550 | 128.28627 | 19639 ft | 346 kts | 240° |
| 2026-05-07 13:22 | 27.20320 | 128.26303 | 19211 ft | 345 kts | 240° |
| 2026-05-07 13:22 | 27.19090 | 128.23982 | 18779 ft | 345 kts | 240° |
| 2026-05-07 13:22 | 27.17862 | 128.21663 | 18363 ft | 346 kts | 240° |
| 2026-05-07 13:22 | 27.16630 | 128.19339 | 17889 ft | 345 kts | 240° |
| 2026-05-07 13:23 | 27.15400 | 128.17019 | 17439 ft | 344 kts | 240° |
| 2026-05-07 13:23 | 27.14177 | 128.14715 | 17021 ft | 343 kts | 240° |
| 2026-05-07 13:23 | 27.12955 | 128.12413 | 16595 ft | 342 kts | 240° |
| 2026-05-07 13:23 | 27.11754 | 128.10155 | 16186 ft | 341 kts | 240° |
| 2026-05-07 13:24 | 27.10531 | 128.07870 | 15774 ft | 340 kts | 240° |
| 2026-05-07 13:24 | 27.09310 | 128.05595 | 15359 ft | 339 kts | 240° |
| 2026-05-07 13:24 | 27.08096 | 128.03331 | 14945 ft | 338 kts | 240° |
| 2026-05-07 13:24 | 27.06881 | 128.01069 | 14530 ft | 338 kts | 240° |
| 2026-05-07 13:25 | 27.05687 | 127.98843 | 14118 ft | 337 kts | 240° |
| 2026-05-07 13:25 | 27.04474 | 127.96582 | 13687 ft | 338 kts | 240° |
| 2026-05-07 13:25 | 27.03263 | 127.94329 | 13259 ft | 336 kts | 240° |
| 2026-05-07 13:25 | 27.02067 | 127.92107 | 12817 ft | 326 kts | 239° |
| 2026-05-07 13:26 | 27.00640 | 127.90200 | 12418 ft | 315 kts | 222° |
| 2026-05-07 13:26 | 26.98802 | 127.88882 | 12084 ft | 313 kts | 211° |
| 2026-05-07 13:26 | 26.96858 | 127.87770 | 11741 ft | 313 kts | 210° |
| 2026-05-07 13:26 | 26.94909 | 127.86688 | 11383 ft | 313 kts | 210° |
| 2026-05-07 13:27 | 26.92962 | 127.85608 | 11031 ft | 312 kts | 210° |
| 2026-05-07 13:27 | 26.91039 | 127.84533 | 10667 ft | 312 kts | 210° |
| 2026-05-07 13:27 | 26.89087 | 127.83436 | 10478 ft | 306 kts | 210° |
| 2026-05-07 13:27 | 26.87235 | 127.82391 | 10329 ft | 298 kts | 210° |
| 2026-05-07 13:28 | 26.85406 | 127.81355 | 10195 ft | 291 kts | 210° |
| 2026-05-07 13:28 | 26.83628 | 127.80346 | 10066 ft | 283 kts | 211° |
| 2026-05-07 13:28 | 26.81869 | 127.79345 | 9727 ft | 283 kts | 211° |
| 2026-05-07 13:28 | 26.80108 | 127.78342 | 9405 ft | 282 kts | 210° |
| 2026-05-07 13:29 | 26.78360 | 127.77347 | 9081 ft | 282 kts | 210° |
| 2026-05-07 13:29 | 26.76607 | 127.76350 | 8767 ft | 282 kts | 210° |
| 2026-05-07 13:29 | 26.74883 | 127.75369 | 8457 ft | 281 kts | 210° |
| 2026-05-07 13:29 | 26.73142 | 127.74379 | 8153 ft | 280 kts | 210° |
| 2026-05-07 13:30 | 26.71418 | 127.73401 | 7810 ft | 272 kts | 210° |
| 2026-05-07 13:30 | 26.69752 | 127.72456 | 7422 ft | 263 kts | 210° |
| 2026-05-07 13:30 | 26.68129 | 127.71536 | 7112 ft | 261 kts | 210° |
| 2026-05-07 13:30 | 26.66501 | 127.70611 | 6805 ft | 263 kts | 209° |
| 2026-05-07 13:31 | 26.64865 | 127.69685 | 6493 ft | 264 kts | 209° |
| 2026-05-07 13:31 | 26.63236 | 127.68763 | 6165 ft | 266 kts | 209° |
| 2026-05-07 13:31 | 26.61628 | 127.67853 | 5841 ft | 267 kts | 208° |
| 2026-05-07 13:31 | 26.59961 | 127.66910 | 5524 ft | 269 kts | 208° |
| 2026-05-07 13:32 | 26.58286 | 127.65963 | 5199 ft | 270 kts | 208° |
| 2026-05-07 13:32 | 26.56609 | 127.65014 | 4870 ft | 272 kts | 208° |
| 2026-05-07 13:32 | 26.54915 | 127.64057 | 4527 ft | 273 kts | 208° |
| 2026-05-07 13:32 | 26.53217 | 127.63098 | 4250 ft | 272 kts | 207° |
| 2026-05-07 13:33 | 26.51528 | 127.62145 | 3985 ft | 271 kts | 207° |
| 2026-05-07 13:33 | 26.49797 | 127.61362 | 3598 ft | 268 kts | 191° |
| 2026-05-07 13:33 | 26.47943 | 127.61434 | 3254 ft | 266 kts | 171° |
| 2026-05-07 13:33 | 26.46146 | 127.61777 | 2931 ft | 266 kts | 172° |
| 2026-05-07 13:34 | 26.44315 | 127.62110 | 2606 ft | 266 kts | 172° |
| 2026-05-07 13:34 | 26.40757 | 127.62748 | 2113 ft | 259 kts | 172° |
| 2026-05-07 13:34 | 26.39016 | 127.63059 | 2046 ft | 249 kts | 171° |
| 2026-05-07 13:35 | 26.37334 | 127.63358 | 2027 ft | 239 kts | 171° |
| 2026-05-07 13:35 | 26.35737 | 127.63641 | 2015 ft | 225 kts | 172° |
| 2026-05-07 13:35 | 26.34242 | 127.63898 | 2019 ft | 216 kts | 173° |
| 2026-05-07 13:35 | 26.32760 | 127.64010 | 2075 ft | 213 kts | 178° |
| 2026-05-07 13:36 | 26.31282 | 127.64066 | 2088 ft | 204 kts | 178° |
| 2026-05-07 13:36 | 26.29924 | 127.64120 | 1941 ft | 186 kts | 178° |
| 2026-05-07 13:36 | 26.28661 | 127.64174 | 1563 ft | 177 kts | 178° |
| 2026-05-07 13:36 | 26.27456 | 127.64227 | 1254 ft | 175 kts | 177° |
| 2026-05-07 13:37 | 26.26228 | 127.64281 | 1246 ft | 176 kts | 177° |
| 2026-05-07 13:37 | 26.25024 | 127.64336 | 1141 ft | 175 kts | 177° |
| 2026-05-07 13:37 | 26.23798 | 127.64401 | 854 ft | 174 kts | 176° |
| 2026-05-07 13:37 | 26.22656 | 127.64443 | 551 ft | 152 kts | 176° |
| 2026-05-07 13:38 | 26.21670 | 127.64496 | 247 ft | 131 kts | 176° |
| 2026-05-07 13:38 | 26.20789 | 127.64527 | 51 ft | 123 kts | 176° |
| 2026-05-07 13:38 | 26.20033 | 127.64566 | 31 ft | 91 kts | 178° |
| 2026-05-07 13:38 | 26.19551 | 127.64589 | 30 ft | 48 kts | 177° |
| 2026-05-07 13:39 | 26.19322 | 127.64640 | 33 ft | 30 kts | 158° |
| 2026-05-07 13:39 | 26.19203 | 127.64740 | 33 ft | 17 kts | 106° |
| 2026-05-07 13:39 | 26.19290 | 127.64805 | 33 ft | 18 kts | 2° |
| 2026-05-07 13:39 | 26.19412 | 127.64801 | 33 ft | 18 kts | 357° |
| 2026-05-07 13:40 | 26.19534 | 127.64794 | 33 ft | 18 kts | 357° |
| 2026-05-07 13:40 | 26.19654 | 127.64790 | 33 ft | 18 kts | 358° |
| 2026-05-07 13:40 | 26.19776 | 127.64784 | 33 ft | 18 kts | 357° |
| 2026-05-07 13:40 | 26.19898 | 127.64778 | 33 ft | 18 kts | 358° |
| 2026-05-07 13:41 | 26.20020 | 127.64773 | 33 ft | 18 kts | 358° |
| 2026-05-07 13:41 | 26.20142 | 127.64767 | 33 ft | 18 kts | 358° |
| 2026-05-07 13:41 | 26.20262 | 127.64762 | 33 ft | 18 kts | 358° |
| 2026-05-07 13:41 | 26.20384 | 127.64756 | 33 ft | 17 kts | 357° |
| 2026-05-07 13:42 | 26.20503 | 127.64751 | 33 ft | 12 kts | 358° |
| 2026-05-07 13:42 | 26.20586 | 127.64748 | 33 ft | 12 kts | 2° |
| 2026-05-07 13:42 | 26.20662 | 127.64783 | 33 ft | 12 kts | 39° |
| 2026-05-07 13:42 | 26.20701 | 127.64829 | 33 ft | 6 kts | 47° |
| 2026-05-07 13:43 | 26.20711 | 127.64842 | 33 ft | 2 kts | 48° |
| 2026-05-07 13:43 | 26.20719 | 127.64851 | 33 ft | 0 kts | 48° |